Time;durP1;ratioP1;P1;durP2;ratioP2;P2;SDS_P1;SDS_P2;PMS_P1;PMS_P2;Temp;Humidity;BMP_temperature;BMP_pressure;BME280_temperature;BME280_humidity;BME280_pressure;Samples;Min_cycle;Max_cycle;Signal;HPM_P1;HPM_P2
2021/08/31 00:01:36;;;;;;;4.72;2.53;;;14.20;96.00;;;;;;4924171;29;20048;-68
2021/08/31 00:04:02;;;;;;;2.60;2.38;;;14.20;96.00;;;;;;4929435;29;20114;-69
2021/08/31 00:06:27;;;;;;;4.32;2.40;;;14.10;95.90;;;;;;4930303;28;20106;-68
2021/08/31 00:08:53;;;;;;;7.03;2.95;;;14.10;96.10;;;;;;4940522;29;20036;-68
2021/08/31 00:11:20;;;;;;;3.35;2.22;;;14.10;96.20;;;;;;4930734;29;20028;-68
2021/08/31 00:13:46;;;;;;;3.33;2.30;;;14.00;96.30;;;;;;4930753;29;20039;-69
2021/08/31 00:16:12;;;;;;;2.83;2.58;;;14.10;96.20;;;;;;4933308;29;20032;-68
2021/08/31 00:18:37;;;;;;;3.20;2.33;;;14.10;96.20;;;;;;4929359;29;20035;-68
2021/08/31 00:21:03;;;;;;;2.42;2.00;;;14.10;96.20;;;;;;4928187;29;20032;-69
2021/08/31 00:23:29;;;;;;;2.97;1.83;;;14.10;96.20;;;;;;4934007;29;20537;-69
2021/08/31 00:25:54;;;;;;;5.85;2.25;;;14.10;96.10;;;;;;4932067;29;20028;-68
2021/08/31 00:28:21;;;;;;;2.90;1.98;;;14.00;96.10;;;;;;4929198;29;20473;-69
2021/08/31 00:30:46;;;;;;;3.55;1.90;;;14.10;96.10;;;;;;4925160;28;20385;-68
2021/08/31 00:33:12;;;;;;;2.95;2.08;;;14.10;96.10;;;;;;4932008;28;20035;-68
2021/08/31 00:35:38;;;;;;;2.90;2.00;;;14.10;96.00;;;;;;4927581;29;20090;-69
2021/08/31 00:38:03;;;;;;;2.72;2.10;;;14.10;95.90;;;;;;4929512;29;20074;-69
2021/08/31 00:40:29;;;;;;;2.08;1.88;;;14.10;95.80;;;;;;4932805;29;20027;-68
2021/08/31 00:42:55;;;;;;;2.80;1.70;;;14.10;95.70;;;;;;4934033;29;20150;-68
2021/08/31 00:45:21;;;;;;;1.98;1.73;;;14.10;95.60;;;;;;4932761;29;20039;-69
2021/08/31 00:47:47;;;;;;;1.67;1.48;;;14.20;95.60;;;;;;4927336;29;20051;-68
2021/08/31 00:50:17;;;;;;;3.55;1.98;;;14.10;95.50;;;;;;4931356;29;20024;-69
2021/08/31 00:52:43;;;;;;;2.97;1.60;;;14.10;95.50;;;;;;4929137;29;20519;-68
2021/08/31 00:55:10;;;;;;;2.10;1.63;;;14.20;95.30;;;;;;4930622;29;20035;-69
2021/08/31 00:57:40;;;;;;;1.60;1.50;;;14.20;95.30;;;;;;4933835;29;20035;-68
2021/08/31 01:00:08;;;;;;;2.10;1.75;;;14.20;95.40;;;;;;4929506;29;20028;-68
2021/08/31 01:02:34;;;;;;;2.72;1.90;;;14.10;95.20;;;;;;4934402;28;20043;-68
2021/08/31 01:05:00;;;;;;;2.42;1.92;;;14.20;95.20;;;;;;4931377;29;20035;-68
2021/08/31 01:07:26;;;;;;;3.15;1.80;;;14.10;95.20;;;;;;4934271;29;20361;-69
2021/08/31 01:09:52;;;;;;;4.47;1.98;;;14.10;95.30;;;;;;4928270;29;20039;-69
2021/08/31 01:12:22;;;;;;;2.85;2.03;;;14.00;95.30;;;;;;4934581;29;20043;-69
2021/08/31 01:14:50;;;;;;;2.92;1.73;;;14.00;95.40;;;;;;4933116;28;20418;-69
2021/08/31 01:17:15;;;;;;;2.72;1.90;;;14.00;95.40;;;;;;4926686;29;20023;-69
2021/08/31 01:19:41;;;;;;;2.60;1.92;;;14.10;95.40;;;;;;4930332;29;20051;-68
2021/08/31 01:22:09;;;;;;;2.67;1.90;;;14.10;95.20;;;;;;4933187;29;20405;-69
2021/08/31 01:24:45;;;;;;;2.90;2.13;;;14.10;95.20;;;;;;4932663;28;20031;-69
2021/08/31 01:27:12;;;;;;;2.83;1.92;;;14.00;95.20;;;;;;4934229;29;20035;-69
2021/08/31 01:29:38;;;;;;;2.63;1.75;;;14.00;95.30;;;;;;4931900;28;20041;-69
2021/08/31 01:32:05;;;;;;;2.83;2.05;;;14.00;95.10;;;;;;4930706;28;20067;-69
2021/08/31 01:34:31;;;;;;;2.42;1.92;;;14.00;95.00;;;;;;4932658;28;20034;-69
2021/08/31 01:36:57;;;;;;;2.67;1.80;;;14.00;95.10;;;;;;4932384;29;20040;-69
2021/08/31 01:39:23;;;;;;;3.63;2.20;;;14.00;95.10;;;;;;4927280;29;20083;-69
2021/08/31 01:41:49;;;;;;;2.78;2.10;;;14.00;95.10;;;;;;4930720;29;20024;-68
2021/08/31 01:44:15;;;;;;;2.47;2.03;;;14.00;95.20;;;;;;4926813;29;20374;-68
2021/08/31 01:46:41;;;;;;;2.92;2.17;;;14.00;95.20;;;;;;4924785;29;20494;-68
2021/08/31 01:49:06;;;;;;;2.55;2.13;;;14.00;95.30;;;;;;4929439;29;20036;-69
2021/08/31 01:51:32;;;;;;;4.57;2.35;;;14.00;95.40;;;;;;4929098;28;20449;-68
2021/08/31 01:53:58;;;;;;;4.93;2.60;;;13.90;95.40;;;;;;4929500;29;20039;-68
2021/08/31 01:56:24;;;;;;;2.92;2.25;;;14.00;95.40;;;;;;4925379;29;20479;-68
2021/08/31 01:58:49;;;;;;;2.85;2.00;;;14.00;95.20;;;;;;4932004;28;20036;-68
2021/08/31 02:01:15;;;;;;;3.15;2.33;;;14.00;95.30;;;;;;4928612;28;20040;-69
2021/08/31 02:03:41;;;;;;;3.50;2.10;;;14.00;95.40;;;;;;4929861;29;20028;-69
2021/08/31 02:06:06;;;;;;;9.30;3.33;;;13.90;95.50;;;;;;4923308;29;20115;-69
2021/08/31 02:08:32;;;;;;;21.17;5.88;;;13.90;95.50;;;;;;4932729;29;20050;-69
2021/08/31 02:10:58;;;;;;;4.43;2.65;;;14.00;95.40;;;;;;4929816;29;20028;-69
2021/08/31 02:13:23;;;;;;;24.23;6.85;;;14.00;95.70;;;;;;4931440;29;20555;-69
2021/08/31 02:15:49;;;;;;;5.55;2.63;;;14.00;95.30;;;;;;4930209;28;20159;-68
2021/08/31 02:18:14;;;;;;;262.95;54.10;;;13.90;95.60;;;;;;4928907;29;20051;-70
2021/08/31 02:20:40;;;;;;;44.42;11.32;;;13.90;95.50;;;;;;4925488;29;20060;-69
2021/08/31 02:23:06;;;;;;;31.33;9.52;;;13.90;95.70;;;;;;4931951;29;20031;-69
2021/08/31 02:25:31;;;;;;;8.70;4.13;;;13.90;95.70;;;;;;4930694;29;20035;-69
2021/08/31 02:27:57;;;;;;;10.18;3.17;;;13.90;95.60;;;;;;4925532;29;20024;-68
2021/08/31 02:30:23;;;;;;;7.65;3.45;;;13.90;95.50;;;;;;4933517;28;20032;-68
2021/08/31 02:32:49;;;;;;;5.45;2.92;;;13.90;95.60;;;;;;4928630;29;20024;-69
2021/08/31 02:35:16;;;;;;;3.85;2.42;;;13.90;95.50;;;;;;4924913;29;20090;-69
2021/08/31 02:37:42;;;;;;;5.03;2.78;;;13.90;95.60;;;;;;4926252;29;20028;-68
2021/08/31 02:40:08;;;;;;;4.03;2.55;;;13.90;95.70;;;;;;4922502;29;20442;-68
2021/08/31 02:42:35;;;;;;;3.00;2.67;;;13.90;95.40;;;;;;4929867;28;20031;-68
2021/08/31 02:45:00;;;;;;;3.88;2.60;;;13.90;95.40;;;;;;4930790;29;20031;-68
2021/08/31 02:47:26;;;;;;;3.80;2.40;;;13.90;95.30;;;;;;4931859;28;20042;-69
2021/08/31 02:49:51;;;;;;;4.40;2.58;;;13.80;95.20;;;;;;4935140;28;20027;-69
2021/08/31 02:52:17;;;;;;;3.63;2.33;;;13.90;95.10;;;;;;4932365;29;20023;-69
2021/08/31 02:54:43;;;;;;;6.00;3.67;;;13.90;95.30;;;;;;4935446;29;20127;-69
2021/08/31 02:57:09;;;;;;;6.38;4.05;;;13.90;95.00;;;;;;4938887;29;20032;-70
2021/08/31 02:59:35;;;;;;;7.43;3.90;;;13.80;95.20;;;;;;4932355;29;20423;-69
2021/08/31 03:04:27;;;;;;;5.35;3.28;;;13.70;95.60;;;;;;4931276;29;20486;-69
2021/08/31 03:06:53;;;;;;;6.43;3.42;;;13.70;95.60;;;;;;4934062;28;20517;-69
2021/08/31 03:09:19;;;;;;;4.15;2.90;;;13.60;95.60;;;;;;4936033;29;20099;-69
2021/08/31 03:11:45;;;;;;;4.68;2.70;;;13.60;95.80;;;;;;4935019;28;20695;-69
2021/08/31 03:14:11;;;;;;;5.72;3.00;;;13.70;95.60;;;;;;4935224;29;20036;-69
2021/08/31 03:16:36;;;;;;;4.78;3.00;;;13.70;95.80;;;;;;4931867;28;20066;-69
2021/08/31 03:19:02;;;;;;;4.68;2.83;;;13.70;95.70;;;;;;4929484;29;20044;-69
2021/08/31 03:21:29;;;;;;;4.53;2.90;;;13.60;95.90;;;;;;4932500;29;20053;-70
2021/08/31 03:23:55;;;;;;;4.45;2.92;;;13.60;96.00;;;;;;4934255;29;20036;-69
2021/08/31 03:26:20;;;;;;;4.35;3.10;;;13.70;95.90;;;;;;4935464;29;20125;-69
2021/08/31 03:28:46;;;;;;;4.50;3.00;;;13.60;96.00;;;;;;4929722;29;20039;-69
2021/08/31 03:31:11;;;;;;;4.80;2.88;;;13.60;95.80;;;;;;4928993;28;20090;-69
2021/08/31 03:33:37;;;;;;;4.70;3.20;;;13.70;95.90;;;;;;4931432;29;20024;-69
2021/08/31 03:36:05;;;;;;;4.47;3.10;;;13.70;95.70;;;;;;4929693;29;20051;-69
2021/08/31 03:38:31;;;;;;;3.95;2.85;;;13.70;95.70;;;;;;4932520;29;20549;-69
2021/08/31 03:40:57;;;;;;;4.07;2.90;;;13.70;95.80;;;;;;4931632;28;20115;-69
2021/08/31 03:43:22;;;;;;;4.28;2.85;;;13.70;95.60;;;;;;4931976;29;21234;-69
2021/08/31 03:45:48;;;;;;;3.92;3.08;;;13.70;95.60;;;;;;4932756;28;20125;-69
2021/08/31 03:48:13;;;;;;;3.70;2.80;;;13.70;95.60;;;;;;4929586;29;20084;-69
2021/08/31 03:50:39;;;;;;;4.63;2.70;;;13.70;95.50;;;;;;4930335;29;20094;-69
2021/08/31 03:53:05;;;;;;;4.90;3.15;;;13.70;95.50;;;;;;4930012;29;20032;-69
2021/08/31 03:55:31;;;;;;;5.53;3.17;;;13.70;95.60;;;;;;4927731;29;20031;-69
2021/08/31 03:57:56;;;;;;;4.22;2.88;;;13.70;95.60;;;;;;4926360;28;20083;-69
2021/08/31 04:00:22;;;;;;;4.38;3.15;;;13.70;95.70;;;;;;4926811;28;20490;-69
2021/08/31 04:02:48;;;;;;;5.15;3.17;;;13.70;95.80;;;;;;4931601;28;20043;-69
2021/08/31 04:05:13;;;;;;;5.72;2.90;;;13.70;96.00;;;;;;4929520;29;20027;-69
2021/08/31 04:07:39;;;;;;;6.78;3.97;;;13.70;96.00;;;;;;4933967;29;20028;-69
2021/08/31 04:10:06;;;;;;;6.65;3.30;;;13.70;95.90;;;;;;4931153;29;20126;-69
2021/08/31 04:12:31;;;;;;;5.00;3.10;;;13.70;96.00;;;;;;4928434;29;20020;-69
2021/08/31 04:14:57;;;;;;;6.07;3.20;;;13.70;96.00;;;;;;4930487;29;20035;-68
2021/08/31 04:17:22;;;;;;;3.88;2.70;;;13.70;96.30;;;;;;4930110;28;20404;-69
2021/08/31 04:19:48;;;;;;;5.13;3.05;;;13.70;96.30;;;;;;4930577;29;20051;-70
2021/08/31 04:22:14;;;;;;;6.75;2.95;;;13.70;96.20;;;;;;4930359;29;20366;-69
2021/08/31 04:24:39;;;;;;;4.95;2.88;;;13.70;96.10;;;;;;4921109;29;20753;-69
2021/08/31 04:27:05;;;;;;;4.57;2.85;;;13.70;96.20;;;;;;4928695;29;20027;-69
2021/08/31 04:29:31;;;;;;;5.22;3.38;;;13.70;96.00;;;;;;4926384;29;20111;-69
2021/08/31 04:31:57;;;;;;;4.90;3.50;;;13.70;96.40;;;;;;4927359;28;20501;-69
2021/08/31 04:34:22;;;;;;;4.70;3.30;;;13.70;95.90;;;;;;4928889;29;20036;-69
2021/08/31 04:36:48;;;;;;;4.78;3.28;;;13.80;95.80;;;;;;4928021;29;20028;-69
2021/08/31 04:39:13;;;;;;;4.72;3.38;;;13.80;95.80;;;;;;4930955;29;20404;-70
2021/08/31 04:41:40;;;;;;;5.45;2.95;;;13.70;95.70;;;;;;4935308;29;20039;-70
2021/08/31 04:44:06;;;;;;;4.88;3.25;;;13.80;95.80;;;;;;4934104;29;20062;-69
2021/08/31 04:46:31;;;;;;;7.07;3.72;;;13.80;95.80;;;;;;4929873;28;20047;-69
2021/08/31 04:48:57;;;;;;;5.30;3.20;;;13.80;95.80;;;;;;4930076;29;20071;-68
2021/08/31 04:51:23;;;;;;;4.10;3.35;;;13.80;95.70;;;;;;4933488;29;20098;-69
2021/08/31 04:53:48;;;;;;;6.18;3.42;;;13.80;95.60;;;;;;4931698;29;20038;-69
2021/08/31 04:56:14;;;;;;;5.00;3.35;;;13.80;95.60;;;;;;4933433;29;20036;-69
2021/08/31 04:58:40;;;;;;;6.03;3.70;;;13.80;96.10;;;;;;4932525;28;20036;-69
2021/08/31 05:01:05;;;;;;;5.47;3.20;;;13.80;95.60;;;;;;4929093;29;20119;-69
2021/08/31 05:03:32;;;;;;;5.53;3.47;;;13.80;95.50;;;;;;4933568;29;20762;-69
2021/08/31 05:05:57;;;;;;;5.90;3.75;;;13.80;95.60;;;;;;4930760;29;20041;-69
2021/08/31 05:08:23;;;;;;;6.55;3.17;;;13.80;95.60;;;;;;4931338;29;20032;-69
2021/08/31 05:10:49;;;;;;;5.65;3.30;;;13.80;95.50;;;;;;4931177;29;20114;-69
2021/08/31 05:13:15;;;;;;;5.95;3.42;;;13.80;95.50;;;;;;4931830;29;20062;-70
2021/08/31 05:15:40;;;;;;;6.05;3.53;;;13.80;95.50;;;;;;4928334;29;20142;-68
2021/08/31 05:18:06;;;;;;;5.57;3.60;;;13.80;95.60;;;;;;4921784;28;20576;-69
2021/08/31 05:20:32;;;;;;;5.03;3.20;;;13.80;95.60;;;;;;4920440;29;20034;-69
2021/08/31 05:23:00;;;;;;;4.80;3.50;;;13.80;95.80;;;;;;4929803;29;20154;-69
2021/08/31 05:25:26;;;;;;;9.85;3.75;;;13.80;95.80;;;;;;4930948;29;20039;-69
2021/08/31 05:27:53;;;;;;;7.30;4.03;;;13.80;95.80;;;;;;4930124;29;20481;-69
2021/08/31 05:30:19;;;;;;;6.05;3.85;;;13.80;95.80;;;;;;4929463;28;20031;-69
2021/08/31 05:32:45;;;;;;;6.43;3.33;;;13.80;95.80;;;;;;4923971;28;20042;-69
2021/08/31 05:35:11;;;;;;;6.78;3.47;;;13.80;95.80;;;;;;4926478;29;20035;-69
2021/08/31 05:37:37;;;;;;;6.63;3.95;;;13.90;95.90;;;;;;4933622;29;20036;-69
2021/08/31 05:40:04;;;;;;;7.53;3.72;;;13.90;95.80;;;;;;4927055;29;20051;-69
2021/08/31 05:42:30;;;;;;;5.25;3.85;;;13.80;95.70;;;;;;4921257;29;20043;-69
2021/08/31 05:44:56;;;;;;;6.00;3.83;;;13.80;95.70;;;;;;4922381;29;20035;-69
2021/08/31 05:47:21;;;;;;;5.30;3.42;;;13.80;95.90;;;;;;4921220;29;20028;-70
2021/08/31 05:49:47;;;;;;;6.90;3.58;;;13.80;95.90;;;;;;4929603;29;20035;-69
2021/08/31 05:52:13;;;;;;;5.97;3.38;;;13.80;95.90;;;;;;4929759;29;20377;-70
2021/08/31 05:54:38;;;;;;;5.60;3.90;;;13.90;95.90;;;;;;4931073;29;20496;-69
2021/08/31 05:57:09;;;;;;;5.72;3.88;;;13.80;95.80;;;;;;4923688;29;20032;-69
2021/08/31 05:59:39;;;;;;;7.18;3.78;;;13.80;95.80;;;;;;4929386;29;20032;-69
2021/08/31 06:02:08;;;;;;;6.43;3.67;;;13.80;96.00;;;;;;4924314;29;20035;-69
2021/08/31 06:04:37;;;;;;;6.13;3.83;;;13.80;95.90;;;;;;4927769;29;20040;-69
2021/08/31 06:07:08;;;;;;;7.32;3.55;;;13.80;95.80;;;;;;4932427;29;20023;-68
2021/08/31 06:09:38;;;;;;;7.70;4.13;;;13.80;95.80;;;;;;4932483;29;20039;-68
2021/08/31 06:12:09;;;;;;;5.97;3.85;;;13.80;95.80;;;;;;4922798;29;20035;-69
2021/08/31 06:14:35;;;;;;;8.50;4.57;;;13.80;96.00;;;;;;4928058;28;20429;-69
2021/08/31 06:17:01;;;;;;;6.28;3.78;;;13.80;96.10;;;;;;4930219;29;20114;-68
2021/08/31 06:19:27;;;;;;;7.50;4.18;;;13.80;96.00;;;;;;4932276;29;20039;-69
2021/08/31 06:21:53;;;;;;;5.47;3.60;;;13.80;96.10;;;;;;4923573;29;20051;-68
2021/08/31 06:24:18;;;;;;;6.47;3.95;;;13.80;96.10;;;;;;4921152;29;20159;-69
2021/08/31 06:26:44;;;;;;;7.05;3.60;;;13.80;96.20;;;;;;4927364;29;22203;-69
2021/08/31 06:29:10;;;;;;;4.82;3.88;;;13.80;96.10;;;;;;4930603;29;20024;-69
2021/08/31 06:31:35;;;;;;;6.53;3.60;;;13.90;96.20;;;;;;4933748;29;20032;-69
2021/08/31 06:34:01;;;;;;;5.68;3.70;;;13.90;95.90;;;;;;4929056;29;20035;-69
2021/08/31 06:36:27;;;;;;;4.70;3.50;;;13.90;96.10;;;;;;4936340;29;20701;-70
2021/08/31 06:38:52;;;;;;;5.07;4.07;;;13.90;96.00;;;;;;4930668;28;20067;-69
2021/08/31 06:41:18;;;;;;;6.28;3.80;;;13.90;96.00;;;;;;4935693;29;20563;-69
2021/08/31 06:43:45;;;;;;;4.55;3.22;;;13.90;96.00;;;;;;4936541;28;20778;-69
2021/08/31 06:46:13;;;;;;;5.50;3.67;;;13.90;95.80;;;;;;4929884;29;20062;-69
2021/08/31 06:48:41;;;;;;;4.28;3.35;;;13.90;95.80;;;;;;4936154;29;20028;-69
2021/08/31 06:51:07;;;;;;;5.82;2.67;;;14.00;95.80;;;;;;4936990;29;20103;-69
2021/08/31 06:53:32;;;;;;;6.90;3.10;;;14.00;95.70;;;;;;4936057;29;20138;-69
2021/08/31 06:55:58;;;;;;;6.65;2.92;;;14.00;95.60;;;;;;4936407;29;20122;-69
2021/08/31 06:58:24;;;;;;;4.72;3.20;;;14.00;95.50;;;;;;4935582;29;20043;-68
2021/08/31 07:00:49;;;;;;;4.25;2.88;;;14.10;95.50;;;;;;4936180;28;20036;-69
2021/08/31 07:03:15;;;;;;;3.38;2.70;;;14.10;95.50;;;;;;4934212;29;20032;-69
2021/08/31 07:05:41;;;;;;;4.90;3.38;;;14.10;95.40;;;;;;4935834;29;20032;-69
2021/08/31 07:08:07;;;;;;;4.75;3.15;;;14.20;95.50;;;;;;4936229;29;20020;-70
2021/08/31 07:10:32;;;;;;;5.15;3.20;;;14.10;95.40;;;;;;4935193;28;20034;-69
2021/08/31 07:12:58;;;;;;;4.97;3.40;;;14.20;95.40;;;;;;4934453;29;20051;-70
2021/08/31 07:15:24;;;;;;;4.85;3.55;;;14.20;95.30;;;;;;4938118;29;20019;-70
2021/08/31 07:17:49;;;;;;;5.13;3.47;;;14.30;95.30;;;;;;4933631;29;20046;-69
2021/08/31 07:20:15;;;;;;;6.88;3.20;;;14.30;95.00;;;;;;4934868;29;20039;-69
2021/08/31 07:22:41;;;;;;;5.97;3.70;;;14.30;95.80;;;;;;4932968;29;20042;-70
2021/08/31 07:25:07;;;;;;;4.13;3.25;;;14.40;95.20;;;;;;4934615;29;20031;-69
2021/08/31 07:27:32;;;;;;;6.40;3.25;;;14.40;94.90;;;;;;4934262;29;20051;-69
2021/08/31 07:29:58;;;;;;;5.55;3.97;;;14.40;94.80;;;;;;4934640;29;20429;-69
2021/08/31 07:32:24;;;;;;;5.00;3.53;;;14.50;94.70;;;;;;4931621;28;20078;-69
2021/08/31 07:34:50;;;;;;;6.35;3.38;;;14.60;95.30;;;;;;4934874;29;20547;-69
2021/08/31 07:37:16;;;;;;;5.85;3.78;;;14.60;94.60;;;;;;4930569;28;20044;-69
2021/08/31 07:39:43;;;;;;;6.03;3.90;;;14.70;94.70;;;;;;4929587;29;20055;-69
2021/08/31 07:42:09;;;;;;;6.05;3.78;;;14.70;94.30;;;;;;4923722;29;20059;-69
2021/08/31 07:44:35;;;;;;;5.60;3.63;;;14.80;94.70;;;;;;4917070;29;20043;-69
2021/08/31 07:47:00;;;;;;;5.10;3.47;;;14.80;94.10;;;;;;4923023;29;20038;-69
2021/08/31 07:49:26;;;;;;;4.05;3.30;;;14.80;93.80;;;;;;4919716;29;20031;-69
2021/08/31 07:51:52;;;;;;;6.28;3.58;;;14.80;93.80;;;;;;4918332;29;20674;-69
2021/08/31 07:54:18;;;;;;;5.07;3.70;;;14.80;94.20;;;;;;4913083;29;20177;-69
2021/08/31 07:56:43;;;;;;;5.47;4.05;;;14.80;93.90;;;;;;4916606;29;20027;-68
2021/08/31 07:59:09;;;;;;;5.15;3.80;;;14.80;94.20;;;;;;4917120;29;20042;-69
2021/08/31 08:01:35;;;;;;;8.93;3.88;;;14.80;94.30;;;;;;4915425;29;20448;-69
2021/08/31 08:04:01;;;;;;;5.55;3.28;;;14.90;94.10;;;;;;4917004;29;20031;-68
2021/08/31 08:06:27;;;;;;;5.70;3.95;;;14.90;94.00;;;;;;4916863;29;20742;-68
2021/08/31 08:08:54;;;;;;;4.28;3.40;;;14.90;93.90;;;;;;4916223;29;20046;-68
2021/08/31 08:11:20;;;;;;;6.95;3.55;;;15.00;94.10;;;;;;4916198;29;20054;-68
2021/08/31 08:13:45;;;;;;;5.38;3.60;;;14.90;93.80;;;;;;4916561;29;20036;-68
2021/08/31 08:16:11;;;;;;;6.50;3.60;;;14.80;93.50;;;;;;4917268;28;20020;-68
2021/08/31 08:18:37;;;;;;;5.43;3.60;;;14.80;93.30;;;;;;4932894;28;20069;-69
2021/08/31 08:21:02;;;;;;;5.60;3.40;;;14.80;93.60;;;;;;4916814;29;21058;-68
2021/08/31 08:23:28;;;;;;;6.00;4.20;;;14.70;93.60;;;;;;4915316;29;20031;-68
2021/08/31 08:25:54;;;;;;;6.85;4.13;;;14.70;93.60;;;;;;4922967;29;20413;-68
2021/08/31 08:28:22;;;;;;;5.28;3.53;;;14.70;94.20;;;;;;4924001;29;20027;-69
2021/08/31 08:30:49;;;;;;;4.33;3.40;;;14.70;94.10;;;;;;4923204;28;20032;-69
2021/08/31 08:33:15;;;;;;;7.30;3.60;;;14.70;94.50;;;;;;4920542;29;20051;-69
2021/08/31 08:35:40;;;;;;;4.63;3.63;;;14.70;94.50;;;;;;4917106;29;20040;-68
2021/08/31 08:38:06;;;;;;;5.22;3.90;;;14.70;94.20;;;;;;4920208;28;20028;-69
2021/08/31 08:40:35;;;;;;;6.05;3.63;;;14.80;94.20;;;;;;4934103;29;20071;-69
2021/08/31 08:43:05;;;;;;;6.65;4.30;;;14.80;94.60;;;;;;4931435;29;20030;-69
2021/08/31 08:45:31;;;;;;;8.15;4.28;;;14.90;94.80;;;;;;4932398;29;20039;-68
2021/08/31 08:47:57;;;;;;;6.53;3.80;;;14.90;94.60;;;;;;4929931;29;20027;-69
2021/08/31 08:50:23;;;;;;;6.40;4.43;;;14.90;93.90;;;;;;4934562;29;20043;-69
2021/08/31 08:52:49;;;;;;;7.72;3.90;;;14.90;93.70;;;;;;4931919;29;20035;-69
2021/08/31 08:55:14;;;;;;;8.20;3.88;;;15.00;94.10;;;;;;4933860;29;20032;-69
2021/08/31 08:57:41;;;;;;;5.78;4.03;;;15.00;93.90;;;;;;4926676;29;20072;-69
2021/08/31 09:00:09;;;;;;;4.80;3.38;;;15.10;93.90;;;;;;4933459;29;20035;-68
2021/08/31 09:02:37;;;;;;;;;;;15.10;93.80;;;;;;4933276;28;20040;-69
2021/08/31 09:05:11;;;;;;;5.03;3.60;;;15.20;93.40;;;;;;4928605;29;19970;-69
2021/08/31 09:07:39;;;;;;;5.53;3.72;;;15.30;93.40;;;;;;4930878;29;20102;-69
2021/08/31 09:10:14;;;;;;;6.78;3.40;;;15.40;93.50;;;;;;4931350;29;20031;-69
2021/08/31 09:12:42;;;;;;;4.40;3.60;;;15.50;93.50;;;;;;4934095;29;20028;-69
2021/08/31 09:15:39;;;;;;;6.30;3.67;;;15.50;91.90;;;;;;4927936;29;20036;-68
2021/08/31 09:18:05;;;;;;;6.25;3.50;;;15.60;93.70;;;;;;4927971;29;20118;-69
2021/08/31 09:20:36;;;;;;;4.57;3.80;;;15.60;92.50;;;;;;4932535;28;20532;-69
2021/08/31 09:23:07;;;;;;;5.28;3.75;;;15.60;92.50;;;;;;4931579;29;20043;-68
2021/08/31 09:25:33;;;;;;;5.85;3.38;;;15.60;92.60;;;;;;4933144;29;20027;-68
2021/08/31 09:27:59;;;;;;;6.32;3.50;;;15.60;92.60;;;;;;4931688;29;20036;-68
2021/08/31 09:30:30;;;;;;;5.38;3.97;;;15.60;92.40;;;;;;4929417;28;20030;-69
2021/08/31 09:33:07;;;;;;;6.35;3.83;;;15.70;92.90;;;;;;4931361;29;20031;-69
2021/08/31 09:35:34;;;;;;;6.25;3.08;;;15.80;92.30;;;;;;4931367;29;20047;-70
2021/08/31 09:38:02;;;;;;;4.93;3.50;;;15.80;91.90;;;;;;4932870;29;20031;-70
2021/08/31 09:40:30;;;;;;;5.05;3.33;;;15.90;91.80;;;;;;4931852;29;20035;-70
2021/08/31 09:42:55;;;;;;;;;;;15.90;91.50;;;;;;4934079;29;20055;-68
2021/08/31 09:45:28;;;;;;;4.72;2.90;;;15.80;91.00;;;;;;4931604;29;19968;-69
2021/08/31 09:47:54;;;;;;;4.55;2.97;;;15.80;90.90;;;;;;4931233;29;20030;-69
2021/08/31 09:50:33;;;;;;;5.22;3.35;;;15.70;90.60;;;;;;4926793;29;20082;-68
2021/08/31 09:53:14;;;;;;;5.35;3.40;;;15.70;90.90;;;;;;4931252;29;20062;-69
2021/08/31 09:55:42;;;;;;;4.07;3.50;;;15.60;91.30;;;;;;4931988;29;20114;-69
2021/08/31 09:58:13;;;;;;;5.60;3.80;;;15.60;91.30;;;;;;4928566;28;20043;-68
2021/08/31 10:00:40;;;;;;;8.05;3.65;;;15.60;90.70;;;;;;4929812;28;20111;-69
2021/08/31 10:03:06;;;;;;;5.68;3.40;;;15.50;91.30;;;;;;4931652;29;20031;-68
2021/08/31 10:05:34;;;;;;;4.22;3.20;;;15.50;91.80;;;;;;4931346;29;20031;-68
2021/08/31 10:08:01;;;;;;;;;;;15.60;92.00;;;;;;4933025;29;20044;-68
2021/08/31 10:10:28;;;;;;;4.07;3.30;;;15.60;91.90;;;;;;4929361;29;19918;-68
2021/08/31 10:12:56;;;;;;;6.47;3.35;;;15.60;91.40;;;;;;4931392;29;20078;-70
2021/08/31 10:15:22;;;;;;;7.03;3.63;;;15.60;91.30;;;;;;4932085;29;20031;-69
2021/08/31 10:17:52;;;;;;;4.35;3.38;;;15.70;92.00;;;;;;4929789;29;20354;-69
2021/08/31 10:20:24;;;;;;;4.22;3.25;;;15.90;91.30;;;;;;4926718;28;20027;-69
2021/08/31 10:22:50;;;;;;;7.15;3.60;;;15.90;90.60;;;;;;4930012;29;20051;-69
2021/08/31 10:25:21;;;;;;;5.10;3.38;;;15.90;91.20;;;;;;4929068;29;20111;-69
2021/08/31 10:27:47;;;;;;;5.10;3.75;;;15.80;91.10;;;;;;4927516;29;20055;-69
2021/08/31 10:30:19;;;;;;;6.07;3.30;;;15.80;90.90;;;;;;4928507;29;20059;-68
2021/08/31 10:32:50;;;;;;;4.85;2.92;;;15.80;90.90;;;;;;4941808;28;20084;-68
2021/08/31 10:35:43;;;;;;;5.03;3.17;;;15.70;90.60;;;;;;4923901;29;20139;-68
2021/08/31 10:38:13;;;;;;;5.25;3.30;;;15.70;90.90;;;;;;4927076;29;20074;-69
2021/08/31 10:40:46;;;;;;;4.22;3.40;;;15.80;91.30;;;;;;4925330;29;20031;-69
2021/08/31 10:43:19;;;;;;;5.40;3.10;;;15.80;92.00;;;;;;4930592;29;20489;-70
2021/08/31 10:45:57;;;;;;;5.07;3.22;;;15.80;91.00;;;;;;4933379;29;20043;-69
2021/08/31 10:48:23;;;;;;;4.55;3.35;;;15.80;91.00;;;;;;4926725;29;20032;-68
2021/08/31 10:51:02;;;;;;;7.20;3.42;;;15.70;91.40;;;;;;4932680;29;20032;-69
2021/08/31 10:53:38;;;;;;;4.13;2.85;;;15.70;91.10;;;;;;4933016;29;20413;-70
2021/08/31 10:56:22;;;;;;;4.55;3.47;;;15.70;91.10;;;;;;4929053;28;20031;-69
2021/08/31 10:58:56;;;;;;;6.10;3.30;;;15.60;91.10;;;;;;4931150;29;20144;-69
2021/08/31 11:01:27;;;;;;;4.43;3.38;;;15.70;91.60;;;;;;4932646;28;20032;-69
2021/08/31 11:03:55;;;;;;;5.50;3.25;;;15.70;90.90;;;;;;4929974;28;20079;-68
2021/08/31 11:06:28;;;;;;;4.18;3.25;;;15.70;91.60;;;;;;4931096;29;20031;-69
2021/08/31 11:09:13;;;;;;;4.10;3.00;;;15.90;92.50;;;;;;4932026;29;20030;-69
2021/08/31 11:11:47;;;;;;;4.15;3.20;;;15.90;90.50;;;;;;4934938;29;20028;-69
2021/08/31 11:14:14;;;;;;;3.10;2.67;;;15.90;90.60;;;;;;4933812;29;20043;-69
2021/08/31 11:16:40;;;;;;;3.80;2.90;;;15.90;90.40;;;;;;4935826;29;20031;-70
2021/08/31 11:19:26;;;;;;;5.63;2.53;;;15.80;90.40;;;;;;4933309;29;20127;-69
2021/08/31 11:21:53;;;;;;;4.47;3.00;;;15.80;90.00;;;;;;4931939;29;20088;-68
2021/08/31 11:24:19;;;;;;;3.92;2.75;;;15.80;90.30;;;;;;4934529;29;20024;-69
2021/08/31 11:26:45;;;;;;;3.78;3.00;;;15.70;90.20;;;;;;4933539;29;20099;-69
2021/08/31 11:29:13;;;;;;;3.65;3.00;;;15.70;90.10;;;;;;4931213;29;20151;-68
2021/08/31 11:31:39;;;;;;;3.67;2.97;;;15.70;89.80;;;;;;4931543;28;20031;-69
2021/08/31 11:34:10;;;;;;;4.15;2.88;;;15.70;90.40;;;;;;4933550;28;20132;-69
2021/08/31 11:36:38;;;;;;;3.97;2.78;;;15.70;90.70;;;;;;4935709;29;20114;-69
2021/08/31 11:39:06;;;;;;;4.05;3.08;;;15.70;90.30;;;;;;4933809;28;20048;-69
2021/08/31 11:41:36;;;;;;;3.70;2.50;;;15.80;90.60;;;;;;4934488;28;20035;-68
2021/08/31 11:44:14;;;;;;;4.18;2.75;;;15.80;89.60;;;;;;4935948;29;20067;-69
2021/08/31 11:46:51;;;;;;;3.92;2.47;;;15.80;89.00;;;;;;4934065;29;20055;-69
2021/08/31 11:49:23;;;;;;;5.57;3.10;;;15.90;89.60;;;;;;4932363;29;20422;-69
2021/08/31 11:51:59;;;;;;;4.28;2.88;;;15.90;89.40;;;;;;4935266;28;20468;-68
2021/08/31 11:54:28;;;;;;;3.38;2.80;;;15.90;90.10;;;;;;4932557;29;20035;-69
2021/08/31 11:56:58;;;;;;;3.75;2.95;;;16.00;90.10;;;;;;4931320;29;20119;-69
2021/08/31 11:59:42;;;;;;;3.42;2.58;;;16.10;90.10;;;;;;4929304;29;20036;-69
2021/08/31 12:02:23;;;;;;;4.68;2.78;;;16.00;90.00;;;;;;4930467;28;20035;-70
2021/08/31 12:04:56;;;;;;;4.75;2.85;;;16.10;88.80;;;;;;4930437;29;20133;-69
2021/08/31 12:07:27;;;;;;;5.75;2.88;;;16.10;88.50;;;;;;4930935;29;20107;-70
2021/08/31 12:09:56;;;;;;;4.00;3.15;;;16.10;87.30;;;;;;4959939;28;20083;-69
2021/08/31 12:12:22;;;;;;;4.35;3.00;;;16.10;88.00;;;;;;4932246;29;20028;-70
2021/08/31 12:14:49;;;;;;;4.25;3.03;;;16.20;88.40;;;;;;4928719;29;20056;-69
2021/08/31 12:17:35;;;;;;;3.50;2.80;;;16.20;88.50;;;;;;4932320;29;20032;-69
2021/08/31 12:20:15;;;;;;;6.20;2.70;;;16.20;88.30;;;;;;4934082;29;20023;-69
2021/08/31 12:22:45;;;;;;;3.90;2.58;;;16.20;86.80;;;;;;4928578;29;20040;-69
2021/08/31 12:25:12;;;;;;;4.90;3.00;;;16.10;87.80;;;;;;4931817;29;20122;-68
2021/08/31 12:27:49;;;;;;;3.15;2.70;;;16.00;88.30;;;;;;4931711;29;20024;-69
2021/08/31 12:30:17;;;;;;;4.30;3.13;;;16.10;87.50;;;;;;4932594;29;20520;-69
2021/08/31 12:32:52;;;;;;;3.05;2.53;;;16.00;88.30;;;;;;4931186;29;20043;-69
2021/08/31 12:35:27;;;;;;;3.00;2.65;;;16.00;89.60;;;;;;4930347;29;20030;-69
2021/08/31 12:38:10;;;;;;;3.58;2.78;;;16.00;87.40;;;;;;4958362;28;20035;-69
2021/08/31 12:40:39;;;;;;;3.50;2.78;;;16.00;87.30;;;;;;4933210;29;20032;-69
2021/08/31 12:43:10;;;;;;;3.85;2.80;;;16.00;88.40;;;;;;4932815;29;20122;-69
2021/08/31 12:45:37;;;;;;;3.53;2.75;;;16.00;85.80;;;;;;4932698;29;20044;-70
2021/08/31 12:48:04;;;;;;;4.03;2.63;;;16.00;88.30;;;;;;4931677;29;20417;-70
2021/08/31 12:50:30;;;;;;;3.45;2.90;;;16.10;88.80;;;;;;4933953;29;20023;-69
2021/08/31 12:52:58;;;;;;;5.18;2.70;;;16.20;86.40;;;;;;4937739;28;20027;-69